createdAt,value
2018-04-08T00:00:20.933Z,21.30
2018-04-08T00:02:48.442Z,21.30
2018-04-08T00:05:15.894Z,21.20
2018-04-08T00:07:43.397Z,21.00
2018-04-08T00:10:10.825Z,20.90
2018-04-08T00:12:39.078Z,20.60
2018-04-08T00:15:06.513Z,20.60
2018-04-08T00:17:34.009Z,20.50
2018-04-08T00:20:01.915Z,20.40
2018-04-08T00:22:29.370Z,20.30
2018-04-08T00:25:00.345Z,20.30
2018-04-08T00:27:27.791Z,20.20
2018-04-08T00:29:55.833Z,20.20
2018-04-08T00:32:23.281Z,20.30
2018-04-08T00:34:51.487Z,20.60
2018-04-08T00:37:18.926Z,20.60
2018-04-08T00:39:46.604Z,20.60
2018-04-08T00:42:14.073Z,20.50
2018-04-08T00:44:41.729Z,20.50
2018-04-08T00:47:09.189Z,20.40
2018-04-08T00:49:36.637Z,20.50
2018-04-08T00:52:05.006Z,20.50
2018-04-08T00:54:32.453Z,20.50
2018-04-08T00:57:01.492Z,20.60
2018-04-08T00:59:29.021Z,20.60
2018-04-08T01:01:56.461Z,20.80
2018-04-08T01:04:24.683Z,20.70
2018-04-08T01:06:52.133Z,20.70
2018-04-08T01:09:19.589Z,20.70
2018-04-08T01:11:47.673Z,20.70
2018-04-08T01:14:15.117Z,20.70
2018-04-08T01:16:42.553Z,20.80
2018-04-08T01:19:10.034Z,20.80
2018-04-08T01:21:37.453Z,20.60
2018-04-08T01:24:05.691Z,20.60
2018-04-08T01:26:33.121Z,20.60
2018-04-08T01:29:00.578Z,20.50
2018-04-08T01:31:28.149Z,20.50
2018-04-08T01:33:55.597Z,20.50
2018-04-08T01:36:23.077Z,20.30
2018-04-08T01:38:50.593Z,20.20
2018-04-08T01:41:18.037Z,20.10
2018-04-08T01:43:46.262Z,20.20
2018-04-08T01:46:13.700Z,20.20
2018-04-08T01:48:41.141Z,20.20
2018-04-08T01:51:08.594Z,20.20
2018-04-08T01:53:36.038Z,20.30
2018-04-08T01:56:04.246Z,20.10
2018-04-08T01:58:31.823Z,20.10
2018-04-08T02:00:59.263Z,20.00
2018-04-08T02:03:26.722Z,20.10
2018-04-08T02:05:54.159Z,20.20
2018-04-08T02:08:22.381Z,20.20
2018-04-08T02:10:49.806Z,20.20
2018-04-08T02:13:17.281Z,20.30
2018-04-08T02:15:44.729Z,20.20
2018-04-08T02:18:12.184Z,20.20
2018-04-08T02:20:39.633Z,20.20
2018-04-08T02:23:07.101Z,20.10
2018-04-08T02:25:34.536Z,20.20
2018-04-08T02:28:02.253Z,20.20
2018-04-08T02:30:29.703Z,20.20
2018-04-08T02:32:57.141Z,20.00
2018-04-08T02:35:24.605Z,20.00
2018-04-08T02:37:52.128Z,20.10
2018-04-08T02:40:19.571Z,20.20
2018-04-08T02:42:47.770Z,20.20
2018-04-08T02:45:15.223Z,20.10
2018-04-08T02:47:42.702Z,20.00
2018-04-08T02:50:10.143Z,20.00
2018-04-08T02:52:37.578Z,19.80
2018-04-08T02:55:05.792Z,19.70
2018-04-08T02:57:33.328Z,19.70
2018-04-08T03:00:02.459Z,19.80
2018-04-08T03:02:29.954Z,19.80
2018-04-08T03:04:57.426Z,19.90
2018-04-08T03:07:25.641Z,19.90
2018-04-08T03:09:53.102Z,19.90
2018-04-08T03:12:20.541Z,19.80
2018-04-08T03:14:47.986Z,19.90
2018-04-08T03:17:16.197Z,20.00
2018-04-08T03:19:43.638Z,20.00
2018-04-08T03:22:11.114Z,20.20
2018-04-08T03:24:38.549Z,20.30
2018-04-08T03:27:05.990Z,20.20
2018-04-08T03:29:34.197Z,20.40
2018-04-08T03:32:02.314Z,20.40
2018-04-08T03:34:29.749Z,20.50
2018-04-08T03:36:57.195Z,20.50
2018-04-08T03:39:24.655Z,20.30
2018-04-08T03:41:52.208Z,20.30
2018-04-08T03:44:19.665Z,20.30
2018-04-08T03:46:48.516Z,20.30
2018-04-08T03:49:16.734Z,20.20
2018-04-08T03:51:44.172Z,20.10
2018-04-08T03:54:11.616Z,20.10
2018-04-08T03:56:39.076Z,20.00
2018-04-08T03:59:06.543Z,20.00
2018-04-08T04:01:33.981Z,20.00
2018-04-08T04:04:02.351Z,19.90
2018-04-08T04:06:30.561Z,19.90
2018-04-08T04:08:58.013Z,19.80
2018-04-08T04:11:26.262Z,19.70
2018-04-08T04:13:54.472Z,19.70
2018-04-08T04:16:22.381Z,19.70
2018-04-08T04:19:01.622Z,19.70
2018-04-08T04:21:41.081Z,19.70
2018-04-08T04:24:21.179Z,19.50
2018-04-08T04:26:48.662Z,19.50
2018-04-08T04:29:16.101Z,19.50
2018-04-08T04:31:43.562Z,19.50
2018-04-08T04:34:11.046Z,19.50
2018-04-08T04:36:38.505Z,19.50
2018-04-08T04:39:05.952Z,19.40
2018-04-08T04:41:33.393Z,19.40
2018-04-08T04:44:00.835Z,19.40
2018-04-08T04:46:28.318Z,19.40
2018-04-08T04:48:55.773Z,19.40
2018-04-08T04:51:23.218Z,19.40
2018-04-08T04:53:50.665Z,19.30
2018-04-08T04:56:18.106Z,19.30
2018-04-08T04:58:45.547Z,19.30
2018-04-08T05:01:13.838Z,19.30
2018-04-08T05:03:41.283Z,19.30
2018-04-08T05:06:10.334Z,19.30
2018-04-08T05:08:38.699Z,19.30
2018-04-08T05:11:06.158Z,19.30
2018-04-08T05:13:33.583Z,19.40
2018-04-08T05:16:01.033Z,19.40
2018-04-08T05:18:28.474Z,19.50
2018-04-08T05:20:56.694Z,19.50
2018-04-08T05:23:24.186Z,19.50
2018-04-08T05:25:51.645Z,19.60
2018-04-08T05:28:19.087Z,19.60
2018-04-08T05:30:46.584Z,19.70
2018-04-08T05:33:14.798Z,19.80
2018-04-08T05:35:42.258Z,19.70
2018-04-08T05:38:09.694Z,19.80
2018-04-08T05:40:38.000Z,19.80
2018-04-08T05:43:06.338Z,19.90
2018-04-08T05:45:33.782Z,20.00
2018-04-08T05:48:02.925Z,20.20
2018-04-08T05:50:30.384Z,20.20
2018-04-08T05:52:57.837Z,20.30
2018-04-08T05:55:25.320Z,20.40
2018-04-08T05:57:52.804Z,20.40
2018-04-08T06:00:21.144Z,20.60
2018-04-08T06:02:48.616Z,20.60
2018-04-08T06:05:16.065Z,20.80
2018-04-08T06:07:43.537Z,21.00
2018-04-08T06:10:10.994Z,21.10
2018-04-08T06:12:38.421Z,21.20
2018-04-08T06:15:05.880Z,21.40
2018-04-08T06:17:33.455Z,21.50
2018-04-08T06:20:00.890Z,21.80
2018-04-08T06:22:28.385Z,22.00
2018-04-08T06:24:55.851Z,22.30
2018-04-08T06:27:23.289Z,22.50
2018-04-08T06:29:50.774Z,22.80
2018-04-08T06:32:18.223Z,23.20
2018-04-08T06:34:45.688Z,23.50
2018-04-08T06:37:13.204Z,23.70
2018-04-08T06:39:40.626Z,23.80
2018-04-08T06:42:08.852Z,23.40
2018-04-08T06:44:36.296Z,23.40
2018-04-08T06:47:03.752Z,23.30
2018-04-08T06:49:31.196Z,23.60
2018-04-08T06:51:58.663Z,23.80
2018-04-08T06:54:26.098Z,24.10
2018-04-08T06:56:53.539Z,24.30
2018-04-08T06:59:21.816Z,24.40
2018-04-08T07:01:50.023Z,24.60
2018-04-08T07:04:17.529Z,24.50
2018-04-08T07:06:45.732Z,24.20
2018-04-08T07:09:13.918Z,24.40
2018-04-08T07:11:41.361Z,24.40
2018-04-08T07:14:09.570Z,25.40
2018-04-08T07:16:37.009Z,25.30
2018-04-08T07:19:04.467Z,25.40
2018-04-08T07:21:31.922Z,25.70
2018-04-08T07:23:59.391Z,25.80
2018-04-08T07:26:27.614Z,25.50
2018-04-08T07:28:55.051Z,25.50
2018-04-08T07:31:22.511Z,26.10
2018-04-08T07:33:49.943Z,26.90
2018-04-08T07:36:18.032Z,27.30
2018-04-08T07:38:45.469Z,27.70
2018-04-08T07:41:12.912Z,27.90
2018-04-08T07:43:40.347Z,28.20
2018-04-08T07:46:08.580Z,27.30
2018-04-08T07:48:36.032Z,27.30
2018-04-08T07:51:03.494Z,27.40
2018-04-08T07:53:32.191Z,27.70
2018-04-08T07:55:59.630Z,28.00
2018-04-08T07:58:27.094Z,28.20
2018-04-08T08:00:54.632Z,28.10
2018-04-08T08:03:22.069Z,28.40
2018-04-08T08:05:50.805Z,29.30
2018-04-08T08:08:18.260Z,29.20
2018-04-08T08:10:45.706Z,29.70
2018-04-08T08:13:13.142Z,29.50
2018-04-08T08:15:40.578Z,29.60
2018-04-08T08:18:08.778Z,29.00
2018-04-08T08:20:36.251Z,29.00
2018-04-08T08:23:03.727Z,28.70
2018-04-08T08:25:31.166Z,28.60
2018-04-08T08:27:58.628Z,29.10
2018-04-08T08:30:26.069Z,29.10
2018-04-08T08:32:53.532Z,28.90
2018-04-08T08:35:20.973Z,28.40
2018-04-08T08:37:48.429Z,27.90
2018-04-08T08:40:15.890Z,27.50
2018-04-08T08:42:43.337Z,27.70
2018-04-08T08:45:11.550Z,28.40
2018-04-08T08:47:39.004Z,28.30
2018-04-08T08:50:06.441Z,27.70
2018-04-08T09:18:27.267Z,24.50
2018-04-08T09:21:11.518Z,26.80
2018-04-08T09:23:40.425Z,27.90
2018-04-08T09:26:07.898Z,29.10
2018-04-08T09:28:36.154Z,31.00
2018-04-08T09:31:03.595Z,30.90
2018-04-08T09:33:31.017Z,30.70
2018-04-08T09:35:58.477Z,29.80
2018-04-08T09:38:25.924Z,29.30
2018-04-08T09:40:54.151Z,28.90
2018-04-08T09:43:21.590Z,28.90
2018-04-08T09:45:49.045Z,29.10
2018-04-08T09:48:16.499Z,29.10
2018-04-08T09:50:43.918Z,29.10
2018-04-08T09:53:12.131Z,28.50
2018-04-08T09:55:39.557Z,28.50
2018-04-08T09:58:07.014Z,28.50
2018-04-08T10:00:51.011Z,28.30
2018-04-08T10:03:30.220Z,28.30
2018-04-08T10:05:57.661Z,28.50
2018-04-08T10:08:25.112Z,28.70
2018-04-08T10:10:53.312Z,29.00
2018-04-08T10:13:20.786Z,29.00
2018-04-08T10:15:48.992Z,29.50
2018-04-08T10:18:16.529Z,29.40
2018-04-08T10:20:43.966Z,29.80
2018-04-08T10:23:11.430Z,30.10
2018-04-08T10:25:38.866Z,30.40
2018-04-08T10:28:06.323Z,30.20
2018-04-08T10:30:33.772Z,29.90
2018-04-08T10:33:01.990Z,30.10
2018-04-08T10:35:29.423Z,30.10
2018-04-08T10:37:56.938Z,30.00
2018-04-08T10:40:25.133Z,30.40
2018-04-08T10:42:52.573Z,30.40
2018-04-08T10:45:20.790Z,30.60
2018-04-08T10:47:48.226Z,30.50
2018-04-08T10:50:15.690Z,30.50
2018-04-08T10:52:43.125Z,30.60
2018-04-08T10:55:11.338Z,31.30
2018-04-08T10:57:38.786Z,31.30
2018-04-08T11:00:06.221Z,31.60
2018-04-08T11:02:34.442Z,32.00
2018-04-08T11:05:01.897Z,32.00
2018-04-08T11:07:29.332Z,32.50
2018-04-08T11:09:56.758Z,32.70
2018-04-08T11:12:24.992Z,33.10
2018-04-08T11:14:52.442Z,33.10
2018-04-08T11:17:19.994Z,33.10
2018-04-08T11:19:47.409Z,33.40
2018-04-08T11:22:15.614Z,33.30
2018-04-08T11:24:43.070Z,33.20
2018-04-08T11:27:10.499Z,33.50
2018-04-08T11:29:37.933Z,33.70
2018-04-08T11:32:05.370Z,33.80
2018-04-08T11:34:33.540Z,33.70
2018-04-08T11:37:00.986Z,33.70
2018-04-08T11:39:28.434Z,33.70
2018-04-08T11:41:56.051Z,33.70
2018-04-08T11:44:23.489Z,33.40
2018-04-08T11:46:50.921Z,33.80
2018-04-08T11:49:18.374Z,33.80
2018-04-08T11:51:45.821Z,33.80
2018-04-08T11:54:13.257Z,33.80
2018-04-08T11:56:41.466Z,33.80
2018-04-08T11:59:09.729Z,33.80
2018-04-08T12:01:37.435Z,34.10
2018-04-08T12:04:05.431Z,34.00
2018-04-08T12:06:32.865Z,34.10
2018-04-08T12:09:00.336Z,34.40
2018-04-08T12:11:27.794Z,34.10
2018-04-08T12:13:55.250Z,34.20
2018-04-08T12:16:22.694Z,34.50
2018-04-08T12:18:50.150Z,34.70
2018-04-08T12:21:17.633Z,34.60
2018-04-08T12:23:45.065Z,34.60
2018-04-08T12:26:12.961Z,34.90
2018-04-08T12:28:41.169Z,34.80
2018-04-08T12:31:09.546Z,34.70
2018-04-08T12:33:37.413Z,34.50
2018-04-08T12:36:04.855Z,34.00
2018-04-08T12:38:33.147Z,33.90
2018-04-08T12:41:00.624Z,33.90
2018-04-08T12:43:28.091Z,34.00
2018-04-08T12:45:55.513Z,34.10
2018-04-08T12:48:22.945Z,34.20
2018-04-08T12:50:51.159Z,34.50
2018-04-08T12:53:18.613Z,34.50
2018-04-08T12:55:46.042Z,34.60
2018-04-08T12:58:14.262Z,34.60
2018-04-08T13:00:41.710Z,34.50
2018-04-08T13:03:09.134Z,34.60
2018-04-08T13:05:37.413Z,34.20
2018-04-08T13:08:05.624Z,33.60
2018-04-08T13:10:33.110Z,33.60
2018-04-08T13:13:00.521Z,33.80
2018-04-08T13:15:27.966Z,33.80
2018-04-08T13:17:56.169Z,34.40
2018-04-08T13:20:23.646Z,34.40
2018-04-08T13:22:51.496Z,34.80
2018-04-08T13:25:18.928Z,34.50
2018-04-08T13:27:46.397Z,34.50
2018-04-08T13:30:13.854Z,34.60
2018-04-08T13:32:41.310Z,34.80
2018-04-08T13:35:09.523Z,34.80
2018-04-08T13:37:36.968Z,34.80
2018-04-08T13:40:04.422Z,34.90
2018-04-08T13:42:31.867Z,34.90
2018-04-08T13:44:59.304Z,34.90
2018-04-08T13:47:27.511Z,35.00
2018-04-08T13:49:54.937Z,35.00
2018-04-08T13:52:22.450Z,35.10
2018-04-08T13:54:49.910Z,35.20
2018-04-08T13:57:17.409Z,35.20
2018-04-08T13:59:44.837Z,35.20
2018-04-08T14:02:12.270Z,35.10
2018-04-08T14:04:39.729Z,35.00
2018-04-08T14:07:07.149Z,35.00
2018-04-08T14:09:34.579Z,35.10
2018-04-08T14:12:03.696Z,34.50
2018-04-08T14:14:31.134Z,34.50
2018-04-08T14:16:59.352Z,34.80
2018-04-08T14:19:26.800Z,34.70
2018-04-08T14:21:54.263Z,34.80
2018-04-08T14:24:21.693Z,34.90
2018-04-08T14:26:49.903Z,34.90
2018-04-08T14:29:17.377Z,34.90
2018-04-08T14:31:44.831Z,34.90
2018-04-08T14:34:12.258Z,34.80
2018-04-08T14:36:39.707Z,34.80
2018-04-08T14:39:07.930Z,34.60
2018-04-08T14:41:35.359Z,34.50
2018-04-08T14:44:03.788Z,34.60
2018-04-08T14:46:31.252Z,34.40
2018-04-08T14:48:58.661Z,34.00
2018-04-08T14:51:26.117Z,33.70
2018-04-08T14:53:53.554Z,33.60
2018-04-08T14:56:20.997Z,33.80
2018-04-08T14:58:49.210Z,34.00
2018-04-08T15:01:16.647Z,34.00
2018-04-08T15:03:44.086Z,34.10
2018-04-08T15:06:12.293Z,34.00
2018-04-08T15:08:39.722Z,34.00
2018-04-08T15:11:07.918Z,33.90
2018-04-08T15:13:35.369Z,33.90
2018-04-08T15:16:03.773Z,33.90
2018-04-08T15:18:31.223Z,34.10
2018-04-08T15:20:58.683Z,34.00
2018-04-08T15:23:26.145Z,34.10
2018-04-08T15:25:53.577Z,34.10
2018-04-08T15:28:21.030Z,33.90
2018-04-08T15:30:49.229Z,33.50
2018-04-08T15:33:16.673Z,33.50
2018-04-08T15:35:44.118Z,33.50
2018-04-08T15:38:12.336Z,33.50
2018-04-08T15:40:39.766Z,33.50
2018-04-08T15:43:07.238Z,33.40
2018-04-08T15:45:34.671Z,33.20
2018-04-08T15:48:03.781Z,33.20
2018-04-08T15:50:31.233Z,33.20
2018-04-08T15:52:58.702Z,32.90
2018-04-08T15:55:26.158Z,32.90
2018-04-08T15:57:53.591Z,32.90
2018-04-08T16:00:21.800Z,32.80
2018-04-08T16:02:49.260Z,32.80
2018-04-08T16:05:16.682Z,32.70
2018-04-08T16:07:44.881Z,32.70
2018-04-08T16:10:12.326Z,32.60
2018-04-08T16:12:39.758Z,32.60
2018-04-08T16:15:07.957Z,32.40
2018-04-08T16:17:35.401Z,32.40
2018-04-08T16:20:04.637Z,32.30
2018-04-08T16:22:32.097Z,32.20
2018-04-08T16:24:59.549Z,32.20
2018-04-08T16:27:26.989Z,32.10
2018-04-08T16:29:54.445Z,31.90
2018-04-08T16:32:21.893Z,31.80
2018-04-08T16:34:50.097Z,31.40
2018-04-08T16:37:17.519Z,31.40
2018-04-08T16:39:45.729Z,31.30
2018-04-08T16:42:13.173Z,31.30
2018-04-08T16:44:40.604Z,31.20
2018-04-08T16:47:08.814Z,31.00
2018-04-08T16:49:36.253Z,31.00
2018-04-08T16:52:04.021Z,30.80
2018-04-08T16:54:31.486Z,30.70
2018-04-08T16:56:59.748Z,30.40
2018-04-08T16:59:27.118Z,30.40
2018-04-08T17:01:54.565Z,30.20
2018-04-08T17:04:22.011Z,30.10
2018-04-08T17:06:50.208Z,29.90
2018-04-08T17:09:17.650Z,29.90
2018-04-08T17:11:45.879Z,29.60
2018-04-08T17:14:13.292Z,29.60
2018-04-08T17:16:40.728Z,29.50
2018-04-08T17:19:08.924Z,29.40
2018-04-08T17:21:36.381Z,29.40
2018-04-08T17:24:04.541Z,29.40
2018-04-08T17:26:32.742Z,29.30
2018-04-08T17:29:00.192Z,29.30
2018-04-08T17:31:27.629Z,29.20
2018-04-08T17:33:55.847Z,29.10
2018-04-08T17:36:23.335Z,29.10
2018-04-08T17:38:50.758Z,29.00
2018-04-08T17:41:18.200Z,29.00
2018-04-08T17:43:45.638Z,28.90
2018-04-08T17:46:13.839Z,28.70
2018-04-08T17:48:41.343Z,28.60
2018-04-08T17:51:08.733Z,28.50
2018-04-08T17:53:36.170Z,28.40
2018-04-08T17:56:04.260Z,28.30
2018-04-08T17:58:32.464Z,28.00
2018-04-08T18:00:59.949Z,28.00
2018-04-08T18:03:27.363Z,27.90
2018-04-08T18:05:54.802Z,27.70
2018-04-08T18:08:23.034Z,27.40
2018-04-08T18:10:50.460Z,27.40
2018-04-08T18:13:17.927Z,27.30
2018-04-08T18:15:45.352Z,27.10
2018-04-08T18:18:13.576Z,26.90
2018-04-08T18:20:41.037Z,26.90
2018-04-08T18:23:08.481Z,26.80
2018-04-08T18:25:35.913Z,26.70
2018-04-08T18:28:04.342Z,26.60
2018-04-08T18:30:31.785Z,26.50
2018-04-08T18:33:00.002Z,26.40
2018-04-08T18:35:27.445Z,26.40
2018-04-08T18:37:54.888Z,26.30
2018-04-08T18:40:22.345Z,26.30
2018-04-08T18:42:49.793Z,26.20
2018-04-08T18:45:17.281Z,26.20
2018-04-08T18:47:44.722Z,26.10
2018-04-08T18:50:12.165Z,26.00
2018-04-08T18:52:39.607Z,26.00
2018-04-08T18:55:07.819Z,25.70
2018-04-08T18:57:35.274Z,25.60
2018-04-08T19:00:02.717Z,25.60
2018-04-08T19:02:30.161Z,25.40
2018-04-08T19:04:57.601Z,25.40
2018-04-08T19:07:25.032Z,25.20
2018-04-08T19:09:53.822Z,25.10
2018-04-08T19:12:22.061Z,25.10
2018-04-08T19:14:55.162Z,25.00
2018-04-08T19:17:28.140Z,25.00
2018-04-08T19:19:55.569Z,25.00
2018-04-08T19:22:23.009Z,24.90
2018-04-08T19:24:50.466Z,24.80
2018-04-08T19:27:23.663Z,24.80
2018-04-08T19:29:51.110Z,24.80
2018-04-08T19:32:18.545Z,24.70
2018-04-08T19:34:46.749Z,24.60
2018-04-08T19:37:14.174Z,24.60
2018-04-08T19:39:41.633Z,24.60
2018-04-08T19:42:09.834Z,24.60
2018-04-08T19:44:37.281Z,24.50
2018-04-08T19:47:05.527Z,24.50
2018-04-08T19:49:32.922Z,24.50
2018-04-08T19:52:00.387Z,24.50
2018-04-08T19:54:27.845Z,24.30
2018-04-08T19:56:55.284Z,24.40
2018-04-08T19:59:23.503Z,24.20
2018-04-08T20:01:50.949Z,24.20
2018-04-08T20:04:18.474Z,24.30
2018-04-08T20:06:46.806Z,24.30
2018-04-08T20:09:14.353Z,24.30
2018-04-08T20:11:41.764Z,24.20
2018-04-08T20:14:09.982Z,24.20
2018-04-08T20:16:37.440Z,24.10
2018-04-08T20:19:04.886Z,24.10
2018-04-08T20:21:32.337Z,24.00
2018-04-08T20:23:59.777Z,23.90
2018-04-08T20:26:28.001Z,23.70
2018-04-08T20:28:55.458Z,23.60
2018-04-08T20:31:22.910Z,23.60
2018-04-08T20:33:50.366Z,23.50
2018-04-08T20:36:17.894Z,23.50
2018-04-08T20:38:46.109Z,23.40
2018-04-08T20:41:13.553Z,23.40
2018-04-08T20:43:40.984Z,23.20
2018-04-08T20:46:08.420Z,23.10
2018-04-08T20:48:36.625Z,23.10
2018-04-08T20:51:05.446Z,23.00
2018-04-08T20:53:32.897Z,23.00
2018-04-08T20:56:00.376Z,23.10
2018-04-08T20:58:27.813Z,23.10
2018-04-08T21:00:55.261Z,23.00
2018-04-08T21:03:22.724Z,22.90
2018-04-08T21:05:50.154Z,22.90
2018-04-08T21:08:17.595Z,22.90
2018-04-08T21:10:45.934Z,22.70
2018-04-08T21:13:13.387Z,22.70
2018-04-08T21:15:40.827Z,22.60
2018-04-08T21:18:08.323Z,22.70
2018-04-08T21:20:35.757Z,22.80
2018-04-08T21:23:03.234Z,22.80
2018-04-08T21:25:30.673Z,22.70
2018-04-08T21:27:58.119Z,22.70
2018-04-08T21:30:25.785Z,22.70
2018-04-08T21:32:53.234Z,22.60
2018-04-08T21:35:20.688Z,22.60
2018-04-08T21:37:48.125Z,22.70
2018-04-08T21:40:15.570Z,22.70
2018-04-08T21:42:43.772Z,22.70
2018-04-08T21:45:11.225Z,22.80
2018-04-08T21:47:38.687Z,22.80
2018-04-08T21:50:06.258Z,22.80
2018-04-08T21:52:33.697Z,22.90
2018-04-08T21:55:01.145Z,22.80
2018-04-08T21:57:29.354Z,22.80
2018-04-08T21:59:56.820Z,22.70
2018-04-08T22:02:24.252Z,22.60
2018-04-08T22:04:51.710Z,22.60
2018-04-08T22:07:19.150Z,22.50
2018-04-08T22:09:47.358Z,22.40
2018-04-08T22:12:14.801Z,22.40
2018-04-08T22:14:42.259Z,22.40
2018-04-08T22:17:09.705Z,22.40
2018-04-08T22:19:37.149Z,22.30
2018-04-08T22:22:04.713Z,22.20
2018-04-08T22:24:32.145Z,22.10
2018-04-08T22:26:59.573Z,22.00
2018-04-08T22:29:27.162Z,22.00
2018-04-08T22:31:54.608Z,21.90
2018-04-08T22:34:22.060Z,21.80
2018-04-08T22:36:49.534Z,21.80
2018-04-08T22:39:16.984Z,21.70
2018-04-08T22:41:44.450Z,21.70
2018-04-08T22:44:11.863Z,21.60
2018-04-08T22:46:39.345Z,21.50
2018-04-08T22:49:06.787Z,21.50
2018-04-08T22:51:34.226Z,21.50
2018-04-08T22:54:01.686Z,21.40
2018-04-08T22:56:29.133Z,21.30
2018-04-08T22:58:56.573Z,21.20
2018-04-08T23:01:24.782Z,21.10
2018-04-08T23:03:52.217Z,21.10
2018-04-08T23:06:19.682Z,21.10
2018-04-08T23:08:47.951Z,21.00
2018-04-08T23:11:16.151Z,21.00
2018-04-08T23:13:43.593Z,21.00
2018-04-08T23:16:11.052Z,20.90
2018-04-08T23:18:38.484Z,20.90
2018-04-08T23:21:06.878Z,20.80
2018-04-08T23:23:35.081Z,20.80
2018-04-08T23:26:02.525Z,20.70
2018-04-08T23:28:29.971Z,20.70
2018-04-08T23:30:58.189Z,20.80
2018-04-08T23:33:25.671Z,20.80
2018-04-08T23:35:53.105Z,20.70
2018-04-08T23:38:20.563Z,20.70
2018-04-08T23:40:48.088Z,20.60
2018-04-08T23:43:15.541Z,20.50
2018-04-08T23:45:43.734Z,20.50
2018-04-08T23:48:11.197Z,20.50
2018-04-08T23:50:38.673Z,20.50
2018-04-08T23:53:06.074Z,20.40
2018-04-08T23:55:34.283Z,20.40
2018-04-08T23:58:01.713Z,20.40
